Time;durP1;ratioP1;P1;durP2;ratioP2;P2;SDS_P1;SDS_P2;PMS_P1;PMS_P2;Temp;Humidity;BMP_temperature;BMP_pressure;BME280_temperature;BME280_humidity;BME280_pressure;Samples;Min_cycle;Max_cycle;Signal;HPM_P1;HPM_P2
2023/12/22 00:01:32;;;;;;;1.35;0.40;;;21.00;37.50;;;;;;5062490;28;20040;-54
2023/12/22 00:03:58;;;;;;;1.77;0.65;;;20.90;37.50;;;;;;5059340;28;20420;-55
2023/12/22 00:06:24;;;;;;;4.35;0.70;;;20.90;37.50;;;;;;5056777;28;20036;-56
2023/12/22 00:08:49;;;;;;;2.28;0.60;;;20.90;37.50;;;;;;5060729;28;20074;-51
2023/12/22 00:11:15;;;;;;;2.65;0.70;;;20.90;37.50;;;;;;5058896;28;20086;-52
2023/12/22 00:13:41;;;;;;;2.75;0.82;;;20.90;37.50;;;;;;5042910;28;20032;-51
2023/12/22 00:16:07;;;;;;;2.28;0.73;;;20.90;37.50;;;;;;5060656;28;20432;-52
2023/12/22 00:18:32;;;;;;;2.38;0.70;;;20.90;37.50;;;;;;5040529;28;20048;-54
2023/12/22 00:20:58;;;;;;;2.33;0.75;;;20.90;37.50;;;;;;5058715;28;20308;-57
2023/12/22 00:23:24;;;;;;;2.25;0.65;;;20.90;37.60;;;;;;5055619;28;20064;-56
2023/12/22 00:25:50;;;;;;;3.03;0.90;;;20.90;37.60;;;;;;5040267;28;20027;-53
2023/12/22 00:28:15;;;;;;;3.10;0.77;;;20.90;37.60;;;;;;5040315;28;20509;-51
2023/12/22 00:30:41;;;;;;;2.25;0.82;;;20.90;37.70;;;;;;5058576;28;20501;-52
2023/12/22 00:33:07;;;;;;;2.92;0.80;;;20.90;37.70;;;;;;5060297;28;20032;-56
2023/12/22 00:35:35;;;;;;;2.33;0.70;;;20.90;37.70;;;;;;5060654;28;20370;-54
2023/12/22 00:38:01;;;;;;;2.25;0.70;;;20.90;37.70;;;;;;5058835;28;20368;-55
2023/12/22 00:40:27;;;;;;;1.20;0.45;;;20.90;37.80;;;;;;5058617;28;20111;-55
2023/12/22 00:42:52;;;;;;;1.73;0.70;;;20.90;37.80;;;;;;5040559;28;20029;-57
2023/12/22 00:45:18;;;;;;;1.85;0.70;;;20.80;37.70;;;;;;5063982;28;20025;-53
2023/12/22 00:47:44;;;;;;;1.42;0.68;;;20.80;37.70;;;;;;5055101;28;20029;-51
2023/12/22 00:50:10;;;;;;;1.05;0.43;;;20.80;37.70;;;;;;5063358;28;20029;-51
2023/12/22 00:52:35;;;;;;;1.65;0.52;;;20.80;37.70;;;;;;5054658;28;20028;-50
2023/12/22 00:55:01;;;;;;;2.85;0.45;;;20.80;37.70;;;;;;5057281;28;20063;-56
2023/12/22 00:57:27;;;;;;;1.25;0.40;;;20.80;37.70;;;;;;5056768;28;20029;-57
2023/12/22 00:59:53;;;;;;;1.95;0.50;;;20.80;37.70;;;;;;5058781;28;20037;-51
2023/12/22 01:02:20;;;;;;;1.13;0.40;;;20.80;37.70;;;;;;5058601;28;20322;-51
2023/12/22 01:04:45;;;;;;;0.90;0.40;;;20.80;37.70;;;;;;5056444;28;20111;-56
2023/12/22 01:07:12;;;;;;;1.65;0.70;;;20.80;37.70;;;;;;5059210;28;20486;-50
2023/12/22 01:09:38;;;;;;;0.82;0.35;;;20.80;37.70;;;;;;5057432;28;20033;-52
2023/12/22 01:12:06;;;;;;;0.98;0.30;;;20.80;37.70;;;;;;5058166;28;20108;-54
2023/12/22 01:14:32;;;;;;;2.10;0.50;;;20.70;37.70;;;;;;5053434;28;20060;-55
2023/12/22 01:16:59;;;;;;;2.13;0.57;;;20.80;37.70;;;;;;5059029;28;20032;-53
2023/12/22 01:19:25;;;;;;;0.95;0.40;;;20.70;37.60;;;;;;5053237;28;20033;-54
2023/12/22 01:21:51;;;;;;;0.75;0.50;;;20.70;37.60;;;;;;5060619;28;20035;-51
2023/12/22 01:24:17;;;;;;;2.55;0.57;;;20.70;37.60;;;;;;5062465;28;20109;-56
2023/12/22 01:26:43;;;;;;;0.68;0.28;;;20.70;37.60;;;;;;5061841;28;20032;-52
2023/12/22 01:29:09;;;;;;;1.23;0.52;;;20.70;37.60;;;;;;5058319;28;20020;-52
2023/12/22 01:31:35;;;;;;;1.50;0.50;;;20.70;37.60;;;;;;5058825;28;20087;-54
2023/12/22 01:34:00;;;;;;;0.95;0.40;;;20.70;37.60;;;;;;5060025;28;20100;-55
2023/12/22 01:36:26;;;;;;;0.68;0.40;;;20.70;38.20;;;;;;5059728;28;20051;-56
2023/12/22 01:38:52;;;;;;;1.50;0.57;;;20.70;37.60;;;;;;5066477;28;20021;-54
2023/12/22 01:41:18;;;;;;;1.27;0.40;;;20.70;37.60;;;;;;5056479;28;20045;-56
2023/12/22 01:43:44;;;;;;;1.10;0.40;;;20.70;37.60;;;;;;5060777;28;20035;-54
2023/12/22 01:46:10;;;;;;;1.17;0.50;;;20.70;37.50;;;;;;5063924;28;20078;-56
2023/12/22 01:48:37;;;;;;;1.40;0.50;;;20.70;37.60;;;;;;5043919;28;20435;-51
2023/12/22 01:51:05;;;;;;;0.60;0.28;;;20.60;37.50;;;;;;5056787;28;20044;-56
2023/12/22 01:53:32;;;;;;;1.10;0.63;;;20.70;37.50;;;;;;5048841;28;20036;-52
2023/12/22 01:55:59;;;;;;;1.42;0.40;;;20.60;37.50;;;;;;5054362;28;20094;-54
2023/12/22 01:58:27;;;;;;;2.30;0.50;;;20.70;37.50;;;;;;5063181;28;20033;-54
2023/12/22 02:00:53;;;;;;;1.42;0.40;;;20.60;37.50;;;;;;5063735;28;20037;-53
2023/12/22 02:03:20;;;;;;;1.48;0.47;;;20.70;37.60;;;;;;5059675;28;20036;-53
2023/12/22 02:05:46;;;;;;;1.90;0.57;;;20.60;37.50;;;;;;5064340;28;20105;-55
2023/12/22 02:08:12;;;;;;;2.00;0.50;;;20.70;37.60;;;;;;5057365;28;20037;-54
2023/12/22 02:10:38;;;;;;;1.83;0.50;;;20.60;37.50;;;;;;5055544;28;20364;-51
2023/12/22 02:13:09;;;;;;;1.00;0.40;;;20.60;37.50;;;;;;5060978;28;20086;-55
2023/12/22 02:15:35;;;;;;;1.55;0.40;;;20.60;37.50;;;;;;5060292;28;20033;-50
2023/12/22 02:18:16;;;;;;;1.50;0.40;;;20.60;37.60;;;;;;5063049;28;20036;-54
2023/12/22 02:20:44;;;;;;;1.17;0.52;;;20.60;37.60;;;;;;5063923;28;20045;-50
2023/12/22 02:23:10;;;;;;;1.52;0.50;;;20.60;37.60;;;;;;5062044;28;20033;-51
2023/12/22 02:25:35;;;;;;;1.38;0.45;;;20.60;37.60;;;;;;5056235;28;20025;-51
2023/12/22 02:28:09;;;;;;;0.82;0.30;;;20.60;37.60;;;;;;5058508;28;20071;-50
2023/12/22 02:30:39;;;;;;;2.25;0.50;;;20.60;37.60;;;;;;5037436;28;20127;-53
2023/12/22 02:33:07;;;;;;;1.27;0.50;;;20.60;37.60;;;;;;5058857;28;20025;-56
2023/12/22 02:35:36;;;;;;;0.80;0.30;;;20.60;37.60;;;;;;5064348;28;20082;-51
2023/12/22 02:38:04;;;;;;;1.13;0.52;;;20.60;37.70;;;;;;5058604;28;20120;-52
2023/12/22 02:40:31;;;;;;;1.00;0.40;;;20.60;37.70;;;;;;5057963;28;20048;-57
2023/12/22 02:42:57;;;;;;;1.33;0.60;;;20.60;37.70;;;;;;5060674;28;20033;-55
2023/12/22 02:45:22;;;;;;;1.30;0.60;;;20.60;37.70;;;;;;5061326;28;20332;-54
2023/12/22 02:47:48;;;;;;;1.70;0.60;;;20.60;37.70;;;;;;5061464;28;20033;-53
2023/12/22 02:50:16;;;;;;;1.30;0.50;;;20.50;37.70;;;;;;5041999;28;20057;-52
2023/12/22 02:52:42;;;;;;;1.60;0.70;;;20.50;37.70;;;;;;5060955;28;20040;-56
2023/12/22 02:55:08;;;;;;;1.73;0.60;;;20.50;37.70;;;;;;5063363;28;20452;-55
2023/12/22 02:57:34;;;;;;;1.30;0.50;;;20.50;37.70;;;;;;5061119;28;20468;-50
2023/12/22 03:00:00;;;;;;;1.40;0.60;;;20.50;37.70;;;;;;5059385;28;20168;-58
2023/12/22 03:02:26;;;;;;;1.63;0.55;;;20.50;37.70;;;;;;5065906;28;20060;-54
2023/12/22 03:04:52;;;;;;;2.53;0.85;;;20.50;37.80;;;;;;5065869;28;20025;-54
2023/12/22 03:07:18;;;;;;;2.13;0.77;;;20.50;37.80;;;;;;5039746;28;20047;-57
2023/12/22 03:09:44;;;;;;;1.45;0.60;;;20.50;37.90;;;;;;5060037;28;20059;-50
2023/12/22 03:12:10;;;;;;;1.73;0.80;;;20.50;37.90;;;;;;5057795;28;20111;-51
2023/12/22 03:14:36;;;;;;;2.20;0.68;;;20.50;37.90;;;;;;5061014;28;20499;-55
2023/12/22 03:17:04;;;;;;;1.88;0.70;;;20.50;37.90;;;;;;5058556;28;20095;-50
2023/12/22 03:19:30;;;;;;;1.08;0.40;;;20.50;38.00;;;;;;5056000;28;20025;-51
2023/12/22 03:21:56;;;;;;;2.00;0.68;;;20.50;37.90;;;;;;5058361;28;20044;-54
2023/12/22 03:24:23;;;;;;;1.80;0.63;;;20.40;37.90;;;;;;5062004;28;20029;-48
2023/12/22 03:26:49;;;;;;;1.75;0.75;;;20.40;38.00;;;;;;5058763;28;20036;-53
2023/12/22 03:29:15;;;;;;;1.33;0.55;;;20.50;38.00;;;;;;5059397;28;20110;-54
2023/12/22 03:31:41;;;;;;;2.10;0.50;;;20.50;38.00;;;;;;5042936;28;20100;-51
2023/12/22 03:34:07;;;;;;;1.17;0.50;;;20.40;37.90;;;;;;5059649;28;20395;-52
2023/12/22 03:36:33;;;;;;;1.13;0.50;;;20.40;37.80;;;;;;5058632;28;20043;-53
2023/12/22 03:38:59;;;;;;;1.90;0.50;;;20.40;37.80;;;;;;5062830;28;20348;-54
2023/12/22 03:41:25;;;;;;;2.13;0.30;;;20.40;37.70;;;;;;5050860;28;20045;-52
2023/12/22 03:43:50;;;;;;;0.70;0.30;;;20.40;37.70;;;;;;5060624;28;20028;-54
2023/12/22 03:46:16;;;;;;;0.98;0.43;;;20.40;37.70;;;;;;5054429;28;20173;-55
2023/12/22 03:48:42;;;;;;;1.15;0.50;;;20.40;37.70;;;;;;5053981;28;20055;-57
2023/12/22 03:51:10;;;;;;;1.40;0.50;;;20.40;37.70;;;;;;5057073;28;21495;-50
2023/12/22 03:53:36;;;;;;;1.45;0.50;;;20.40;37.60;;;;;;5055265;28;20040;-50
2023/12/22 03:56:02;;;;;;;1.65;0.50;;;20.40;37.60;;;;;;5060379;28;20324;-53
2023/12/22 03:58:29;;;;;;;1.20;0.40;;;20.40;37.60;;;;;;5058748;28;20098;-50
2023/12/22 04:00:56;;;;;;;1.02;0.40;;;20.40;37.70;;;;;;5059562;28;20519;-52
2023/12/22 04:03:21;;;;;;;1.45;0.50;;;20.40;37.60;;;;;;5039144;28;20032;-55
2023/12/22 04:05:47;;;;;;;1.15;0.32;;;20.30;37.60;;;;;;5057423;28;20079;-55
2023/12/22 04:08:13;;;;;;;1.38;0.43;;;20.40;37.60;;;;;;5056704;28;20028;-54
2023/12/22 04:10:39;;;;;;;2.47;0.57;;;20.40;37.70;;;;;;5058415;28;20037;-55
2023/12/22 04:13:04;;;;;;;0.70;0.30;;;20.30;37.60;;;;;;5055574;28;20029;-55
2023/12/22 04:15:30;;;;;;;1.15;0.50;;;20.30;37.60;;;;;;5061577;28;20112;-53
2023/12/22 04:17:56;;;;;;;1.45;0.47;;;20.30;37.60;;;;;;5056557;28;20432;-51
2023/12/22 04:20:22;;;;;;;0.50;0.30;;;20.30;37.60;;;;;;5063376;28;20438;-52
2023/12/22 04:22:47;;;;;;;0.95;0.40;;;20.30;37.70;;;;;;5053913;28;20473;-54
2023/12/22 04:25:13;;;;;;;1.42;0.50;;;20.30;37.70;;;;;;5056990;28;20094;-52
2023/12/22 04:27:39;;;;;;;1.15;0.32;;;20.30;37.70;;;;;;5040257;28;20025;-55
2023/12/22 04:30:05;;;;;;;1.23;0.50;;;20.30;37.70;;;;;;5056931;28;20108;-53
2023/12/22 04:32:31;;;;;;;0.43;0.30;;;20.30;37.70;;;;;;5055243;28;20467;-57
2023/12/22 04:34:57;;;;;;;1.80;0.57;;;20.30;37.70;;;;;;5060289;28;20040;-57
2023/12/22 04:37:24;;;;;;;1.85;0.60;;;20.30;37.70;;;;;;5055649;28;20149;-56
2023/12/22 04:39:50;;;;;;;1.65;0.50;;;20.30;37.70;;;;;;5054908;28;20423;-52
2023/12/22 04:42:15;;;;;;;1.20;0.50;;;20.30;37.70;;;;;;5056938;28;20035;-55
2023/12/22 04:44:41;;;;;;;1.15;0.45;;;20.30;37.70;;;;;;5059017;28;20112;-54
2023/12/22 04:47:07;;;;;;;1.42;0.40;;;20.30;37.70;;;;;;5060710;28;20022;-54
2023/12/22 04:49:33;;;;;;;1.83;0.35;;;20.30;37.80;;;;;;5056690;28;20044;-52
2023/12/22 04:51:59;;;;;;;1.92;0.70;;;20.30;37.80;;;;;;5061562;28;20063;-52
2023/12/22 04:54:24;;;;;;;1.30;0.45;;;20.30;37.80;;;;;;5058654;28;20039;-57
2023/12/22 04:56:51;;;;;;;1.70;0.60;;;20.30;37.80;;;;;;5062752;28;20056;-55
2023/12/22 04:59:16;;;;;;;1.50;0.60;;;20.30;37.80;;;;;;5063686;28;20075;-56
2023/12/22 05:01:42;;;;;;;1.95;0.80;;;20.20;37.80;;;;;;5059305;28;20464;-49
2023/12/22 05:04:09;;;;;;;2.28;0.50;;;20.20;37.80;;;;;;5060673;28;20051;-55
2023/12/22 05:06:35;;;;;;;2.20;0.57;;;20.30;37.90;;;;;;5060072;28;20343;-56
2023/12/22 05:09:01;;;;;;;1.42;0.57;;;20.30;37.90;;;;;;5058379;28;20117;-56
2023/12/22 05:11:26;;;;;;;1.25;0.55;;;20.30;37.90;;;;;;5059172;28;20033;-53
2023/12/22 05:13:52;;;;;;;1.60;0.70;;;20.20;37.90;;;;;;5043259;28;20500;-55
2023/12/22 05:16:18;;;;;;;2.22;0.77;;;20.20;37.90;;;;;;5061815;28;20021;-56
2023/12/22 05:18:44;;;;;;;2.10;0.73;;;20.20;37.90;;;;;;5057483;28;20375;-59
2023/12/22 05:21:13;;;;;;;2.60;0.70;;;20.20;37.90;;;;;;5056819;28;20094;-56
2023/12/22 05:23:38;;;;;;;1.58;0.60;;;20.20;37.90;;;;;;5058628;28;20036;-55
2023/12/22 05:26:04;;;;;;;1.73;0.63;;;20.20;38.00;;;;;;5059232;28;20047;-52
2023/12/22 05:28:30;;;;;;;3.15;0.70;;;20.20;38.00;;;;;;5060604;28;20025;-53
2023/12/22 05:30:56;;;;;;;1.52;0.60;;;20.20;38.00;;;;;;5058171;28;20028;-53
2023/12/22 05:33:22;;;;;;;2.33;0.75;;;20.20;38.00;;;;;;5056561;28;20025;-58
2023/12/22 05:35:48;;;;;;;1.25;0.60;;;20.20;38.10;;;;;;5043201;28;20029;-57
2023/12/22 05:38:13;;;;;;;2.13;0.65;;;20.20;38.10;;;;;;5038118;28;20049;-51
2023/12/22 05:40:39;;;;;;;1.80;0.68;;;20.10;38.00;;;;;;5054081;28;20041;-51
2023/12/22 05:43:12;;;;;;;3.47;0.98;;;20.20;38.10;;;;;;5044430;28;20395;-53
2023/12/22 05:45:38;;;;;;;1.60;0.68;;;20.10;38.10;;;;;;5040932;28;20108;-51
2023/12/22 05:48:04;;;;;;;2.75;0.68;;;20.20;38.10;;;;;;5061413;28;20031;-52
2023/12/22 05:50:30;;;;;;;2.53;0.70;;;20.10;38.10;;;;;;5061330;28;20348;-53
2023/12/22 05:52:56;;;;;;;1.40;0.43;;;20.20;38.20;;;;;;5061180;28;20108;-52
2023/12/22 05:55:22;;;;;;;2.13;0.70;;;20.10;38.10;;;;;;5056689;28;20078;-52
2023/12/22 05:57:47;;;;;;;2.30;0.70;;;20.10;38.10;;;;;;5063799;28;20347;-53
2023/12/22 06:00:15;;;;;;;1.55;0.55;;;20.20;38.20;;;;;;5059548;28;20235;-55
2023/12/22 06:02:41;;;;;;;2.42;0.70;;;20.10;38.10;;;;;;5059330;28;20052;-55
2023/12/22 06:05:07;;;;;;;2.13;0.68;;;20.10;38.20;;;;;;5058478;28;20056;-50
2023/12/22 06:07:33;;;;;;;1.77;0.60;;;20.20;38.20;;;;;;5056433;28;20036;-56
2023/12/22 06:09:58;;;;;;;2.40;0.70;;;20.10;38.20;;;;;;5058918;28;20025;-57
2023/12/22 06:12:25;;;;;;;1.92;0.77;;;20.10;38.20;;;;;;5058618;28;20029;-54
2023/12/22 06:14:51;;;;;;;2.10;0.80;;;20.10;38.20;;;;;;5056648;28;20039;-49
2023/12/22 06:17:16;;;;;;;2.13;0.70;;;20.10;38.20;;;;;;5056957;28;20028;-51
2023/12/22 06:19:42;;;;;;;2.47;0.80;;;20.10;38.30;;;;;;5055171;28;20045;-49
2023/12/22 06:22:08;;;;;;;2.83;1.00;;;20.10;38.30;;;;;;5057287;28;20080;-51
2023/12/22 06:24:36;;;;;;;2.22;0.70;;;20.10;38.30;;;;;;5030539;28;20405;-51
2023/12/22 06:27:01;;;;;;;2.30;0.68;;;20.10;38.30;;;;;;5056490;28;20107;-53
2023/12/22 06:29:27;;;;;;;1.88;0.52;;;20.10;38.30;;;;;;5054145;28;20156;-51
2023/12/22 06:31:53;;;;;;;2.55;0.98;;;20.10;38.30;;;;;;5061530;28;20427;-52
2023/12/22 06:34:19;;;;;;;1.55;0.70;;;20.10;38.30;;;;;;5041148;28;20116;-53
2023/12/22 06:36:45;;;;;;;2.78;1.00;;;20.10;38.30;;;;;;5056366;28;20040;-53
2023/12/22 06:39:11;;;;;;;1.85;0.50;;;20.10;38.40;;;;;;5040003;28;20362;-55
2023/12/22 06:41:36;;;;;;;2.25;0.77;;;20.10;38.40;;;;;;5038921;28;20488;-53
2023/12/22 06:44:02;;;;;;;3.00;0.80;;;20.10;38.40;;;;;;5061326;28;20032;-53
2023/12/22 06:46:30;;;;;;;2.33;0.73;;;20.10;38.40;;;;;;5042269;28;20036;-56
2023/12/22 06:48:57;;;;;;;2.35;0.50;;;20.10;38.50;;;;;;5040309;28;20035;-56
2023/12/22 06:51:26;;;;;;;3.00;0.80;;;20.00;38.40;;;;;;5061623;28;20087;-52
2023/12/22 06:53:52;;;;;;;4.03;0.80;;;20.10;38.60;;;;;;5055195;28;20035;-54
2023/12/22 06:56:27;;;;;;;2.05;0.88;;;20.00;38.50;;;;;;5058303;28;20036;-53
2023/12/22 06:58:55;;;;;;;2.13;0.60;;;20.10;38.60;;;;;;5063898;28;20104;-55
2023/12/22 07:01:23;;;;;;;3.10;0.98;;;20.00;38.60;;;;;;5057972;28;20095;-56
2023/12/22 07:03:50;;;;;;;1.98;0.85;;;20.00;38.60;;;;;;5054845;28;20021;-55
2023/12/22 07:06:17;;;;;;;1.85;0.70;;;20.00;38.70;;;;;;5055099;28;20043;-49
2023/12/22 07:08:43;;;;;;;2.65;0.85;;;20.00;38.70;;;;;;5039399;28;20053;-56
2023/12/22 07:11:10;;;;;;;1.95;0.73;;;20.00;38.70;;;;;;5059652;28;20028;-52
2023/12/22 07:13:36;;;;;;;2.50;0.88;;;20.00;38.80;;;;;;5059805;28;20103;-52
2023/12/22 07:16:02;;;;;;;2.50;0.90;;;20.00;38.80;;;;;;5055217;28;20036;-55
2023/12/22 07:18:31;;;;;;;2.33;1.10;;;20.00;38.80;;;;;;5055116;28;20132;-55
2023/12/22 07:20:58;;;;;;;2.35;0.88;;;20.00;38.80;;;;;;5054714;28;20069;-56
2023/12/22 07:23:24;;;;;;;2.75;0.90;;;20.00;38.80;;;;;;5037722;28;20116;-54
2023/12/22 07:25:50;;;;;;;2.45;0.73;;;20.00;38.80;;;;;;5055600;28;20033;-57
2023/12/22 07:28:16;;;;;;;2.97;0.85;;;20.00;38.90;;;;;;5041103;28;20048;-55
2023/12/22 07:30:42;;;;;;;2.65;0.90;;;20.00;38.90;;;;;;5055468;28;20025;-52
2023/12/22 07:33:07;;;;;;;2.30;0.57;;;20.00;39.00;;;;;;5054552;28;20025;-52
2023/12/22 07:35:34;;;;;;;2.65;0.85;;;20.00;39.00;;;;;;5057675;28;20029;-53
2023/12/22 07:38:02;;;;;;;2.78;1.10;;;20.00;39.00;;;;;;5059782;28;20108;-54
2023/12/22 07:40:30;;;;;;;2.90;0.90;;;20.00;39.10;;;;;;5037164;28;20049;-55
2023/12/22 07:42:59;;;;;;;3.50;1.00;;;20.00;39.10;;;;;;5052763;28;20025;-54
2023/12/22 07:45:25;;;;;;;3.40;0.90;;;20.00;39.10;;;;;;5050900;28;20040;-57
2023/12/22 07:47:54;;;;;;;2.72;1.05;;;20.00;39.20;;;;;;5051047;28;20472;-51
2023/12/22 07:50:21;;;;;;;2.80;0.90;;;20.00;39.20;;;;;;5051499;28;20064;-57
2023/12/22 07:52:47;;;;;;;3.28;1.00;;;20.00;39.30;;;;;;5050454;28;20036;-54
2023/12/22 07:55:13;;;;;;;2.67;0.88;;;20.00;39.30;;;;;;5055928;28;21554;-54
2023/12/22 07:57:39;;;;;;;4.28;1.10;;;20.00;39.40;;;;;;5038845;28;20115;-50
2023/12/22 08:00:05;;;;;;;2.80;0.80;;;20.00;39.40;;;;;;5049645;28;20347;-52
2023/12/22 08:02:37;;;;;;;2.58;1.02;;;20.00;39.50;;;;;;5046952;28;20053;-51
2023/12/22 08:05:04;;;;;;;2.72;1.10;;;20.00;39.50;;;;;;5052659;28;20186;-53
2023/12/22 08:07:30;;;;;;;3.35;1.20;;;20.10;39.60;;;;;;5052656;28;20021;-52
2023/12/22 08:09:56;;;;;;;3.47;1.17;;;20.10;39.60;;;;;;5057870;28;20031;-51
2023/12/22 08:12:22;;;;;;;3.17;1.00;;;20.20;39.70;;;;;;5057079;28;20387;-52
2023/12/22 08:14:48;;;;;;;2.60;1.02;;;20.20;39.60;;;;;;5055781;28;20115;-54
2023/12/22 08:17:14;;;;;;;3.08;1.05;;;20.20;39.50;;;;;;5058554;28;21633;-54
2023/12/22 08:19:43;;;;;;;3.22;1.30;;;20.20;39.50;;;;;;5057161;28;20035;-54
2023/12/22 08:22:14;;;;;;;3.67;1.15;;;20.30;39.50;;;;;;5055252;28;20029;-53
2023/12/22 08:24:41;;;;;;;3.15;1.40;;;20.30;39.60;;;;;;5038876;28;20344;-54
2023/12/22 08:27:07;;;;;;;3.42;0.98;;;20.30;39.60;;;;;;5054418;28;20021;-51
2023/12/22 08:29:33;;;;;;;2.80;1.15;;;20.40;39.70;;;;;;5057754;28;20112;-55
2023/12/22 08:32:00;;;;;;;2.90;0.93;;;20.40;39.70;;;;;;5055767;28;20068;-56
2023/12/22 08:34:26;;;;;;;2.75;1.00;;;20.40;39.70;;;;;;5057440;28;20033;-57
2023/12/22 08:36:52;;;;;;;2.75;0.98;;;20.50;39.80;;;;;;5056407;28;20045;-52
2023/12/22 08:39:18;;;;;;;2.40;0.90;;;20.50;39.80;;;;;;5056559;28;20100;-54
2023/12/22 08:41:45;;;;;;;2.45;1.00;;;20.50;39.70;;;;;;5055621;28;20052;-48
2023/12/22 08:44:11;;;;;;;2.95;0.98;;;20.50;39.70;;;;;;5058253;28;20036;-55
2023/12/22 08:46:37;;;;;;;4.63;1.30;;;20.60;39.70;;;;;;5056777;28;20021;-55
2023/12/22 08:49:03;;;;;;;3.58;1.20;;;20.60;39.60;;;;;;5063980;28;20021;-51
2023/12/22 08:51:29;;;;;;;3.45;1.05;;;20.70;39.70;;;;;;5057184;28;20367;-54
2023/12/22 08:53:55;;;;;;;3.25;0.98;;;20.70;39.70;;;;;;5057419;28;20451;-55
2023/12/22 08:56:22;;;;;;;3.22;0.95;;;20.70;39.70;;;;;;5057635;28;20375;-51
2023/12/22 08:58:51;;;;;;;3.70;1.38;;;20.80;39.70;;;;;;5057132;28;20028;-52
2023/12/22 09:01:18;;;;;;;4.18;1.45;;;20.80;39.80;;;;;;5055588;28;20072;-49
2023/12/22 09:03:46;;;;;;;8.85;1.30;;;20.80;39.80;;;;;;5053944;28;20090;-53
2023/12/22 09:06:16;;;;;;;4.85;1.13;;;20.90;39.90;;;;;;5060660;28;20104;-52
2023/12/22 09:08:42;;;;;;;3.90;1.33;;;20.80;39.90;;;;;;5054972;28;20021;-52
2023/12/22 09:11:09;;;;;;;4.60;1.38;;;20.90;39.90;;;;;;5050467;28;20036;-51
2023/12/22 09:13:35;;;;;;;2.63;1.00;;;20.90;39.90;;;;;;5059536;28;20029;-50
2023/12/22 09:16:05;;;;;;;3.75;1.33;;;20.90;39.90;;;;;;5060811;28;20031;-51
2023/12/22 09:18:31;;;;;;;3.58;1.20;;;21.00;39.90;;;;;;5058655;28;20100;-52
2023/12/22 09:20:57;;;;;;;3.70;1.23;;;20.90;39.90;;;;;;5059850;28;20048;-54
2023/12/22 09:23:24;;;;;;;5.03;1.67;;;21.00;39.90;;;;;;5064299;28;20028;-49
2023/12/22 09:25:49;;;;;;;2.33;0.95;;;21.00;39.90;;;;;;5046026;28;20126;-56
2023/12/22 09:28:15;;;;;;;2.78;0.95;;;21.00;39.90;;;;;;5057221;28;20175;-51
2023/12/22 09:30:41;;;;;;;2.97;1.35;;;21.00;39.90;;;;;;5062475;28;20033;-53
2023/12/22 09:33:11;;;;;;;2.75;1.08;;;21.00;40.00;;;;;;5064522;28;20090;-49
2023/12/22 09:35:37;;;;;;;4.53;1.08;;;21.00;40.00;;;;;;5070443;28;20317;-48
2023/12/22 09:38:03;;;;;;;2.03;0.90;;;21.00;40.00;;;;;;5073576;28;20083;-55
2023/12/22 09:40:30;;;;;;;2.80;1.13;;;20.90;40.00;;;;;;5065508;28;20043;-54
2023/12/22 09:42:58;;;;;;;2.75;0.82;;;20.90;40.00;;;;;;5050937;28;20025;-55
2023/12/22 09:45:25;;;;;;;1.75;0.80;;;21.00;40.10;;;;;;5063550;28;20028;-50
2023/12/22 09:47:52;;;;;;;3.25;0.93;;;20.90;40.00;;;;;;5067762;28;20043;-48
2023/12/22 09:50:19;;;;;;;2.40;1.08;;;20.90;40.00;;;;;;5044730;28;20364;-52
2023/12/22 09:52:45;;;;;;;2.97;0.80;;;21.00;40.10;;;;;;5070556;28;20025;-49
2023/12/22 09:55:13;;;;;;;4.60;1.40;;;20.90;40.10;;;;;;5064491;28;20089;-47
2023/12/22 09:57:39;;;;;;;1.33;0.65;;;21.00;40.20;;;;;;5066929;28;20152;-53
2023/12/22 10:00:10;;;;;;;2.60;0.90;;;20.90;40.10;;;;;;5062846;28;20115;-50
2023/12/22 10:02:39;;;;;;;2.25;0.85;;;21.00;40.20;;;;;;5066211;28;20021;-54
2023/12/22 10:05:05;;;;;;;2.08;0.80;;;20.90;40.10;;;;;;5058126;28;20432;-49
2023/12/22 10:07:33;;;;;;;1.55;0.60;;;20.90;40.10;;;;;;5062470;28;20374;-48
2023/12/22 10:10:00;;;;;;;1.77;0.57;;;20.90;40.00;;;;;;5070575;28;20020;-53
2023/12/22 10:12:30;;;;;;;1.98;0.85;;;20.90;40.00;;;;;;5067225;28;20041;-49
2023/12/22 10:14:59;;;;;;;2.42;0.73;;;20.90;40.00;;;;;;5064230;28;20062;-51
2023/12/22 10:17:25;;;;;;;1.15;0.50;;;20.90;40.00;;;;;;5065882;28;20434;-54
2023/12/22 10:19:52;;;;;;;1.70;0.60;;;20.90;40.00;;;;;;5061831;28;20045;-53
2023/12/22 10:22:18;;;;;;;1.95;0.68;;;20.90;40.00;;;;;;5052961;28;20058;-52
2023/12/22 10:24:50;;;;;;;2.05;0.60;;;20.90;39.90;;;;;;5055764;28;20033;-53
2023/12/22 10:27:22;;;;;;;1.13;0.50;;;20.90;39.90;;;;;;5059107;28;20464;-51
2023/12/22 10:29:54;;;;;;;1.75;0.50;;;20.90;39.90;;;;;;5067290;28;20037;-53
2023/12/22 10:32:21;;;;;;;1.13;0.60;;;20.90;39.90;;;;;;5069430;28;20033;-52
2023/12/22 10:34:47;;;;;;;2.05;0.60;;;20.90;39.90;;;;;;5062830;28;20029;-50
2023/12/22 10:37:13;;;;;;;1.25;0.50;;;20.90;39.90;;;;;;5065919;28;20422;-56
2023/12/22 10:39:39;;;;;;;1.33;0.40;;;20.90;39.90;;;;;;5055215;28;20017;-53
2023/12/22 10:42:06;;;;;;;0.88;0.60;;;20.90;40.00;;;;;;5072262;28;20154;-52
2023/12/22 10:44:32;;;;;;;1.60;0.55;;;20.90;40.00;;;;;;5066977;28;20021;-54
2023/12/22 10:46:58;;;;;;;1.52;0.70;;;20.90;40.00;;;;;;5071113;28;20032;-52
2023/12/22 10:49:25;;;;;;;1.30;0.40;;;20.90;40.00;;;;;;5067341;28;20049;-53
2023/12/22 10:51:51;;;;;;;1.38;0.50;;;20.90;40.10;;;;;;5072900;28;20042;-54
2023/12/22 10:54:18;;;;;;;1.58;0.57;;;20.90;40.70;;;;;;5063982;28;20028;-50
2023/12/22 10:56:44;;;;;;;1.40;0.50;;;20.90;40.20;;;;;;5073316;28;20089;-55
2023/12/22 10:59:10;;;;;;;1.52;0.40;;;20.90;40.20;;;;;;5070792;28;20116;-52
2023/12/22 11:01:38;;;;;;;1.98;0.70;;;20.90;40.30;;;;;;5071676;28;20036;-57
2023/12/22 11:04:16;;;;;;;0.75;0.35;;;20.90;40.30;;;;;;5066119;28;20020;-51
2023/12/22 11:06:44;;;;;;;1.90;0.70;;;20.90;40.30;;;;;;5056795;28;20033;-52
2023/12/22 11:09:10;;;;;;;1.60;0.40;;;21.00;40.40;;;;;;5057035;28;20025;-51
2023/12/22 11:11:38;;;;;;;2.03;0.50;;;21.00;40.40;;;;;;5060334;28;20123;-53
2023/12/22 11:14:05;;;;;;;1.90;0.50;;;21.00;40.40;;;;;;5049826;28;20296;-53
2023/12/22 11:16:35;;;;;;;1.25;0.50;;;21.00;40.50;;;;;;5037460;28;20444;-53
2023/12/22 11:19:02;;;;;;;1.67;0.60;;;21.00;40.50;;;;;;5061467;28;20029;-58
2023/12/22 11:21:28;;;;;;;0.88;0.30;;;21.00;40.50;;;;;;5069115;28;20032;-49
2023/12/22 11:23:55;;;;;;;0.77;0.25;;;21.00;40.50;;;;;;5043715;28;20032;-55
2023/12/22 11:26:22;;;;;;;3.38;0.50;;;21.00;40.60;;;;;;5056922;28;20021;-51
2023/12/22 11:28:50;;;;;;;3.20;0.77;;;21.00;40.70;;;;;;5057604;28;20039;-55
2023/12/22 11:31:17;;;;;;;1.67;0.50;;;21.00;40.80;;;;;;5061069;28;20094;-53
2023/12/22 11:33:50;;;;;;;0.85;0.40;;;21.10;40.90;;;;;;5059444;28;20425;-51
2023/12/22 11:36:18;;;;;;;1.33;0.40;;;21.20;41.10;;;;;;5044096;28;20418;-51
2023/12/22 11:38:45;;;;;;;1.33;0.40;;;21.30;41.10;;;;;;5059682;28;20130;-54
2023/12/22 11:41:19;;;;;;;1.65;0.40;;;21.40;41.10;;;;;;5068895;28;20036;-53
2023/12/22 11:43:47;;;;;;;0.80;0.32;;;21.40;41.10;;;;;;5062962;28;20041;-55
2023/12/22 11:46:17;;;;;;;1.67;0.50;;;21.40;41.20;;;;;;5056504;28;20087;-53
2023/12/22 11:48:49;;;;;;;1.73;0.70;;;21.40;41.30;;;;;;5054741;28;20048;-51
2023/12/22 11:51:16;;;;;;;0.88;0.40;;;21.40;41.40;;;;;;5060236;28;20344;-50
2023/12/22 11:53:43;;;;;;;2.45;0.38;;;21.30;41.40;;;;;;5061028;28;20438;-55
2023/12/22 11:56:09;;;;;;;2.45;0.60;;;21.30;41.50;;;;;;5062117;28;20103;-57
2023/12/22 11:58:50;;;;;;;2.60;0.43;;;21.30;41.70;;;;;;5049969;28;20056;-55
2023/12/22 12:01:18;;;;;;;1.77;0.50;;;21.20;41.60;;;;;;5057454;28;20044;-58
2023/12/22 12:03:53;;;;;;;2.53;0.63;;;21.20;41.70;;;;;;5064130;28;20107;-55
2023/12/22 12:06:32;;;;;;;0.55;0.20;;;21.20;41.70;;;;;;5037557;28;20024;-62
2023/12/22 12:09:01;;;;;;;0.75;0.30;;;21.20;41.70;;;;;;5053709;28;20032;-55
2023/12/22 12:11:51;;;;;;;1.50;0.55;;;21.20;41.70;;;;;;5053987;28;20092;-53
2023/12/22 12:14:22;;;;;;;1.23;0.45;;;21.10;41.70;;;;;;5054446;28;20051;-51
2023/12/22 12:16:48;;;;;;;2.05;0.50;;;21.10;41.70;;;;;;5053682;28;20511;-55
2023/12/22 12:19:15;;;;;;;3.13;0.50;;;21.10;41.70;;;;;;5053985;28;20390;-52
2023/12/22 12:21:40;;;;;;;1.50;0.40;;;21.10;41.70;;;;;;5053926;28;20037;-53
2023/12/22 12:24:09;;;;;;;0.93;0.50;;;21.00;41.70;;;;;;5051367;28;20095;-53
2023/12/22 12:26:35;;;;;;;1.42;0.40;;;21.00;41.70;;;;;;5048383;28;20029;-55
2023/12/22 12:29:02;;;;;;;1.33;0.70;;;21.00;41.80;;;;;;5017379;28;20041;-55
2023/12/22 12:31:37;;;;;;;0.85;0.45;;;21.00;41.80;;;;;;5034273;28;20124;-53
2023/12/22 12:34:08;;;;;;;1.08;0.32;;;21.00;41.80;;;;;;5034322;28;20116;-57
2023/12/22 12:36:34;;;;;;;1.48;0.50;;;21.00;41.80;;;;;;5016615;28;20362;-53
2023/12/22 12:39:10;;;;;;;0.90;0.55;;;21.00;41.80;;;;;;5034845;28;20029;-55
2023/12/22 12:41:40;;;;;;;0.77;0.45;;;20.90;41.80;;;;;;5036281;28;20042;-57
2023/12/22 12:44:08;;;;;;;0.98;0.40;;;20.90;41.80;;;;;;5054040;28;20044;-53
2023/12/22 12:46:43;;;;;;;1.05;0.50;;;20.90;41.80;;;;;;5054081;28;20033;-55